Time;durP1;ratioP1;P1;durP2;ratioP2;P2;SDS_P1;SDS_P2;PMS_P1;PMS_P2;Temp;Humidity;BMP_temperature;BMP_pressure;BME280_temperature;BME280_humidity;BME280_pressure;Samples;Min_cycle;Max_cycle;Signal;HPM_P1;HPM_P2
2022/05/07 00:01:46;;;;;;;16.33;11.45;;;;;;;13.41;71.56;102130.03;5072473;28;20075;-88
2022/05/07 00:04:36;;;;;;;19.20;11.77;;;;;;;13.41;70.67;102133.59;5073393;28;20518;-87
2022/05/07 00:07:04;;;;;;;19.83;11.47;;;;;;;13.39;72.69;102123.94;5057044;28;20028;-88
2022/05/07 00:09:32;;;;;;;17.10;11.48;;;;;;;13.41;72.92;102143.69;5073280;28;20032;-88
2022/05/07 00:12:00;;;;;;;20.13;12.50;;;;;;;13.28;72.86;102119.88;5073768;28;20055;-87
2022/05/07 00:14:29;;;;;;;18.80;11.75;;;;;;;13.25;73.44;102118.38;5072696;28;20059;-87
2022/05/07 00:19:52;;;;;;;19.50;11.13;;;;;;;13.12;72.71;102116.47;5072992;28;20074;-87
2022/05/07 00:22:21;;;;;;;18.52;11.88;;;;;;;13.10;71.92;102120.41;5073124;28;20028;-88
2022/05/07 00:24:50;;;;;;;18.98;11.88;;;;;;;13.11;71.56;102128.41;5055627;28;20044;-87
2022/05/07 00:27:20;;;;;;;18.77;10.80;;;;;;;13.01;72.62;102118.88;5072577;28;20033;-87
2022/05/07 00:30:03;;;;;;;18.38;11.40;;;;;;;13.00;72.96;102118.06;5072282;28;20033;-87
2022/05/07 00:32:39;;;;;;;16.83;11.33;;;;;;;12.98;71.62;102126.44;5073016;28;20032;-87
2022/05/07 00:35:12;;;;;;;18.92;11.20;;;;;;;12.97;72.82;102126.63;5072688;28;20033;-88
2022/05/07 00:37:40;;;;;;;18.58;11.93;;;;;;;12.97;73.26;102132.06;5072772;28;20115;-88
2022/05/07 00:40:09;;;;;;;19.83;11.35;;;;;;;12.96;73.96;102133.09;5072190;28;20064;-88
2022/05/07 00:43:01;;;;;;;16.92;11.02;;;;;;;12.94;73.26;102121.59;5072275;28;20031;-88
2022/05/07 00:45:34;;;;;;;17.67;11.00;;;;;;;12.84;73.15;102104.75;5072882;28;20036;-88
2022/05/07 00:48:05;;;;;;;18.33;11.63;;;;;;;12.76;72.59;102101.16;5072565;28;20036;-88
2022/05/07 00:53:22;;;;;;;18.08;12.07;;;;;;;12.75;72.35;102104.06;5073739;28;20043;-87
2022/05/07 00:55:51;;;;;;;15.63;11.35;;;;;;;12.74;72.60;102107.81;5056077;28;20035;-87
2022/05/07 00:58:18;;;;;;;17.47;12.03;;;;;;;12.71;73.08;102103.63;5072304;28;20091;-88
2022/05/07 01:00:54;;;;;;;22.40;12.18;;;;;;;12.85;73.36;102120.91;5072246;28;20025;-87
2022/05/07 01:03:35;;;;;;;16.52;11.93;;;;;;;12.77;75.08;102104.69;5056272;28;20507;-88
2022/05/07 01:06:05;;;;;;;18.58;12.07;;;;;;;12.74;74.81;102108.69;5072444;28;20035;-87
2022/05/07 01:08:34;;;;;;;17.05;11.98;;;;;;;12.70;75.75;102095.66;5056198;28;20556;-88
2022/05/07 01:11:00;;;;;;;17.27;12.93;;;;;;;12.71;73.78;102105.50;5071170;28;20068;-88
2022/05/07 01:13:28;;;;;;;17.35;12.40;;;;;;;12.66;73.23;102097.94;5071904;28;20113;-88
2022/05/07 01:15:57;;;;;;;18.60;11.63;;;;;;;12.64;73.68;102094.56;5071773;28;20040;-87
2022/05/07 01:18:40;;;;;;;;;;;;;;;;;;;;;
2022/05/07 01:21:15;;;;;;;22.02;13.27;;;;;;;12.58;73.22;102085.31;5072842;28;20033;-88
2022/05/07 01:23:51;;;;;;;16.63;12.17;;;;;;;12.54;72.69;102092.19;5073825;28;20056;-87
2022/05/07 01:26:20;;;;;;;21.17;13.30;;;;;;;12.50;73.01;102092.78;5055502;28;20098;-87
2022/05/07 01:28:48;;;;;;;20.38;13.18;;;;;;;12.51;73.48;102095.31;5072047;28;20033;-87
2022/05/07 01:31:16;;;;;;;20.77;12.75;;;;;;;12.45;74.07;102085.22;5055739;28;20039;-88
2022/05/07 01:33:46;;;;;;;21.70;13.25;;;;;;;12.50;75.00;102093.63;5071954;28;20119;-87
2022/05/07 01:36:19;;;;;;;21.70;12.57;;;;;;;12.47;75.10;102088.56;5072562;28;20036;-87
2022/05/07 01:38:59;;;;;;;;;;;;;;;;;;;;;
2022/05/07 01:41:25;;;;;;;18.40;12.70;;;;;;;12.44;75.86;102087.09;5071470;28;20032;-88
2022/05/07 01:43:50;;;;;;;21.67;13.17;;;;;;;12.44;76.12;102092.53;5071849;28;20124;-87
2022/05/07 01:49:10;;;;;;;24.48;13.48;;;;;;;12.41;75.91;102081.19;5073240;28;20102;-88
2022/05/07 01:51:35;;;;;;;17.60;12.55;;;;;;;12.41;76.60;102075.75;5072296;28;20043;-88
2022/05/07 01:54:08;;;;;;;17.77;12.73;;;;;;;12.50;76.27;102090.06;5076216;28;20392;-88
2022/05/07 01:56:40;;;;;;;22.95;12.18;;;;;;;12.40;74.92;102083.09;5077008;28;20025;-88
2022/05/07 01:59:15;;;;;;;20.63;13.23;;;;;;;12.38;75.85;102077.00;5060168;28;20060;-87
2022/05/07 02:01:45;;;;;;;19.17;12.55;;;;;;;12.37;76.41;102071.75;5075541;28;20040;-88
2022/05/07 02:04:10;;;;;;;18.60;12.95;;;;;;;12.40;77.20;102087.69;5075561;28;20029;-87
2022/05/07 02:06:36;;;;;;;20.50;12.87;;;;;;;12.37;77.05;102074.47;5075175;28;20032;-87
2022/05/07 02:09:11;;;;;;;19.63;12.93;;;;;;;12.31;77.09;102073.38;5075345;28;20071;-87
2022/05/07 02:11:42;;;;;;;19.75;12.82;;;;;;;12.38;76.42;102068.81;5074573;28;20053;-88
2022/05/07 02:14:29;;;;;;;20.73;13.30;;;;;;;12.31;75.74;102067.94;5075374;28;20024;-88
2022/05/07 02:16:56;;;;;;;19.95;12.68;;;;;;;12.33;75.23;102057.69;5075166;28;20028;-88
2022/05/07 02:19:31;;;;;;;24.40;13.87;;;;;;;12.44;76.06;102075.38;5075245;28;20559;-87
2022/05/07 02:21:59;;;;;;;19.67;13.80;;;;;;;12.46;76.86;102073.31;5075344;28;20108;-88
2022/05/07 02:24:27;;;;;;;22.05;14.38;;;;;;;12.48;77.81;102068.50;5075087;28;20134;-88
2022/05/07 02:26:59;;;;;;;18.45;13.30;;;;;;;12.42;78.27;102061.13;5075429;28;20032;-88
2022/05/07 02:29:27;;;;;;;21.45;14.30;;;;;;;12.39;77.86;102064.25;5059117;28;20102;-88
2022/05/07 02:32:05;;;;;;;21.73;13.60;;;;;;;12.41;76.38;102071.16;5058326;28;20032;-88
2022/05/07 02:34:38;;;;;;;23.27;14.52;;;;;;;12.29;75.91;102057.25;5075602;28;20445;-88
2022/05/07 02:37:16;;;;;;;22.95;14.90;;;;;;;12.23;76.24;102062.66;5075173;28;20029;-88
2022/05/07 02:39:41;;;;;;;23.00;14.13;;;;;;;12.21;75.89;102057.41;5076305;28;20449;-88
2022/05/07 02:44:54;;;;;;;22.92;15.63;;;;;;;12.24;76.35;102050.72;5076122;28;20047;-88
2022/05/07 02:47:24;;;;;;;23.17;15.52;;;;;;;12.29;76.22;102059.97;5074527;28;20027;-88
2022/05/07 02:49:51;;;;;;;22.58;15.93;;;;;;;12.23;76.17;102044.44;5042155;28;20158;-88
2022/05/07 02:52:17;;;;;;;24.70;16.47;;;;;;;12.25;75.79;102047.81;5074892;28;20032;-87
2022/05/07 02:54:51;;;;;;;23.65;15.70;;;;;;;12.31;75.89;102048.88;5074641;28;20483;-87
2022/05/07 02:57:17;;;;;;;25.25;15.82;;;;;;;12.37;75.65;102055.41;5076106;28;20028;-87
2022/05/07 02:59:45;;;;;;;22.13;15.87;;;;;;;12.39;75.76;102062.34;5074439;28;20050;-87
2022/05/07 03:02:16;;;;;;;26.00;16.10;;;;;;;12.31;75.96;102048.03;5074207;28;20028;-88
2022/05/07 03:04:45;;;;;;;26.98;16.85;;;;;;;12.26;76.15;102045.91;5075101;28;20028;-87
2022/05/07 03:07:19;;;;;;;25.47;16.90;;;;;;;12.22;75.68;102045.50;5074341;28;20103;-87
2022/05/07 03:09:49;;;;;;;28.65;16.52;;;;;;;12.26;76.40;102049.47;5074170;28;20526;-88
2022/05/07 03:12:19;;;;;;;27.85;17.13;;;;;;;12.28;76.86;102057.44;5074078;28;20048;-88
2022/05/07 03:14:45;;;;;;;25.77;16.42;;;;;;;12.21;76.90;102045.66;5074255;28;20075;-87
2022/05/07 03:17:12;;;;;;;27.23;16.50;;;;;;;12.29;76.71;102057.25;5074268;28;20052;-88
2022/05/07 03:19:40;;;;;;;30.65;17.15;;;;;;;12.30;77.43;102044.50;5075234;28;20044;-87
2022/05/07 03:22:08;;;;;;;28.60;17.50;;;;;;;12.29;77.53;102042.81;5074053;28;20052;-87
2022/05/07 03:24:47;;;;;;;;;;;;;;;;;;;;;
2022/05/07 03:27:18;;;;;;;22.47;15.97;;;;;;;12.39;77.61;102042.47;5076001;28;20028;-87
2022/05/07 03:29:48;;;;;;;24.98;17.02;;;;;;;12.41;77.25;102060.25;5075500;28;20111;-87
2022/05/07 03:32:19;;;;;;;28.77;16.02;;;;;;;12.41;78.49;102043.94;5075436;28;20032;-88
2022/05/07 03:34:47;;;;;;;26.20;16.75;;;;;;;12.43;78.33;102044.59;5074072;28;20025;-87
2022/05/07 03:37:15;;;;;;;28.05;16.63;;;;;;;12.46;78.40;102051.53;5073452;28;20118;-87
2022/05/07 03:39:43;;;;;;;24.07;16.57;;;;;;;12.46;78.86;102048.81;5073207;28;20036;-88
2022/05/07 03:42:14;;;;;;;27.65;16.75;;;;;;;12.44;78.89;102042.69;5074590;28;20025;-87
2022/05/07 03:44:44;;;;;;;24.50;16.25;;;;;;;12.46;77.95;102054.25;5075245;28;20060;-87
2022/05/07 03:47:20;;;;;;;;;;;;;;;;;;;;;
2022/05/07 03:49:46;;;;;;;23.65;16.35;;;;;;;12.45;77.67;102047.94;5075159;28;20032;-87
2022/05/07 03:55:09;;;;;;;26.20;16.35;;;;;;;12.43;76.88;102058.19;5073948;28;20131;-87
2022/05/07 03:57:37;;;;;;;25.30;15.10;;;;;;;12.52;77.77;102071.66;5074327;28;20021;-87
2022/05/07 04:00:03;;;;;;;22.08;15.18;;;;;;;12.42;76.74;102070.13;5056514;28;20116;-87
2022/05/07 04:02:36;;;;;;;25.55;16.00;;;;;;;12.45;77.92;102071.63;5073388;28;20127;-87
2022/05/07 04:05:05;;;;;;;24.65;15.93;;;;;;;12.43;76.66;102079.13;5073565;28;20040;-87
2022/05/07 04:07:37;;;;;;;27.40;16.55;;;;;;;12.31;76.26;102062.47;5072847;28;20035;-87
2022/05/07 04:10:06;;;;;;;27.70;18.20;;;;;;;12.20;76.36;102065.75;5072942;28;20044;-88
2022/05/07 04:13:00;;;;;;;28.50;18.38;;;;;;;12.25;76.15;102087.75;5072803;28;20138;-87
2022/05/07 04:15:28;;;;;;;28.70;18.55;;;;;;;12.04;76.77;102064.97;5072370;28;20033;-88
2022/05/07 04:17:54;;;;;;;31.98;19.00;;;;;;;12.06;76.84;102083.84;5074246;28;20033;-87
2022/05/07 04:20:25;;;;;;;29.77;18.07;;;;;;;12.00;76.85;102077.31;5072767;28;20055;-88
2022/05/07 04:22:55;;;;;;;27.13;18.70;;;;;;;11.88;77.11;102076.09;5073526;28;20442;-87
2022/05/07 04:25:24;;;;;;;29.15;18.50;;;;;;;11.84;77.44;102070.22;5056866;28;20032;-87
2022/05/07 04:27:49;;;;;;;33.67;19.02;;;;;;;11.89;77.49;102083.22;5074006;28;20120;-87
2022/05/07 04:30:15;;;;;;;26.67;17.37;;;;;;;11.84;77.46;102077.53;5072395;28;20716;-87
2022/05/07 04:32:43;;;;;;;28.35;18.30;;;;;;;12.00;77.48;102088.19;5072627;28;20024;-87
2022/05/07 04:35:14;;;;;;;28.57;19.60;;;;;;;12.07;76.88;102086.34;5072637;28;20036;-87
2022/05/07 04:37:39;;;;;;;30.75;19.90;;;;;;;12.10;76.91;102077.81;5055719;28;20036;-87
2022/05/07 04:40:06;;;;;;;26.97;18.80;;;;;;;12.22;77.22;102071.84;5072157;28;20033;-87
2022/05/07 04:42:42;;;;;;;32.47;19.17;;;;;;;12.29;76.39;102070.00;5073359;28;20302;-87
2022/05/07 04:45:08;;;;;;;29.05;19.60;;;;;;;12.39;75.91;102075.97;5073892;28;20074;-87
2022/05/07 04:47:34;;;;;;;27.77;18.85;;;;;;;12.44;75.90;102084.34;5072478;28;20119;-87
2022/05/07 04:52:50;;;;;;;32.63;19.42;;;;;;;12.56;76.49;102097.44;5072717;28;20051;-88
2022/05/07 04:55:22;;;;;;;30.85;19.38;;;;;;;12.54;75.17;102088.63;5072454;28;20040;-88
2022/05/07 04:57:48;;;;;;;29.77;20.17;;;;;;;12.54;75.24;102081.31;5072453;28;20500;-88
2022/05/07 05:00:14;;;;;;;29.50;19.63;;;;;;;12.57;75.00;102089.06;5072032;28;20020;-87
2022/05/07 05:02:43;;;;;;;30.67;19.80;;;;;;;12.56;75.53;102084.69;5072641;28;20028;-87
2022/05/07 05:05:25;;;;;;;29.67;20.80;;;;;;;12.58;74.89;102093.47;5072346;28;20029;-87
2022/05/07 05:07:53;;;;;;;29.90;20.77;;;;;;;12.56;74.83;102089.28;5072314;28;20051;-87
2022/05/07 05:10:24;;;;;;;34.60;22.13;;;;;;;12.51;74.52;102100.75;5071679;28;20066;-87
2022/05/07 05:12:51;;;;;;;37.38;24.20;;;;;;;12.48;74.82;102103.88;5072166;28;20052;-87
2022/05/07 05:15:32;;;;;;;35.97;22.98;;;;;;;12.54;74.72;102115.88;5072517;28;20098;-87
2022/05/07 05:17:59;;;;;;;31.67;23.15;;;;;;;12.48;75.11;102108.50;5055239;28;20064;-87
2022/05/07 05:20:32;;;;;;;35.63;22.73;;;;;;;12.55;74.94;102112.06;5071635;28;20078;-87
2022/05/07 05:23:00;;;;;;;36.53;22.40;;;;;;;12.66;75.38;102113.44;5072867;28;20452;-87
2022/05/07 05:25:30;;;;;;;33.88;22.25;;;;;;;12.85;74.53;102131.78;5055657;28;20083;-87
2022/05/07 05:28:03;;;;;;;38.38;23.60;;;;;;;12.94;74.00;102135.19;5075045;28;20036;-87
2022/05/07 05:30:29;;;;;;;35.90;24.30;;;;;;;12.92;73.66;102127.22;5076320;28;20033;-87
2022/05/07 05:33:25;;;;;;;37.60;23.90;;;;;;;12.97;73.62;102137.53;5059168;28;20487;-93
2022/05/07 05:36:37;;;;;;;;;;;;;;;;;;;;;
2022/05/07 05:39:07;;;;;;;35.08;23.98;;;;;;;13.04;73.50;102132.97;5077085;28;20502;-90
2022/05/07 05:42:05;;;;;;;;;;;;;;;;;;;;;
2022/05/07 05:44:59;;;;;;;42.20;24.80;;;;;;;13.27;72.47;102129.09;5069606;28;20043;-95
2022/05/07 05:48:11;;;;;;;34.75;24.63;;;;;;;13.46;72.19;102147.47;5067741;28;20041;-87
2022/05/07 05:51:19;;;;;;;40.40;24.48;;;;;;;13.48;71.62;102137.19;5075407;28;20033;-86
2022/05/07 05:53:56;;;;;;;36.28;23.85;;;;;;;13.62;71.91;102146.25;5074363;28;20085;-90
2022/05/07 05:56:34;;;;;;;38.77;24.37;;;;;;;13.66;71.94;102133.06;5059738;28;20029;-87
2022/05/07 05:59:00;;;;;;;37.25;23.83;;;;;;;13.69;71.99;102141.66;5075963;28;20032;-88
2022/05/07 06:01:28;;;;;;;36.87;23.47;;;;;;;13.76;71.66;102144.44;5075364;28;20043;-87
2022/05/07 06:03:56;;;;;;;35.33;22.88;;;;;;;13.81;71.80;102133.75;5077128;28;20480;-87
2022/05/07 06:06:24;;;;;;;39.65;22.70;;;;;;;13.90;71.27;102122.66;5075529;28;20035;-87
2022/05/07 06:08:50;;;;;;;34.45;22.25;;;;;;;14.00;71.06;102125.81;5058813;28;20480;-87
2022/05/07 06:11:19;;;;;;;35.90;21.83;;;;;;;14.25;70.47;102141.59;5074418;28;20036;-87
2022/05/07 06:13:47;;;;;;;32.65;19.35;;;;;;;14.39;69.27;102155.06;5058545;28;20028;-87
2022/05/07 06:16:17;;;;;;;33.50;20.38;;;;;;;14.34;69.13;102138.44;5075430;28;20085;-86
2022/05/07 06:18:55;;;;;;;31.13;17.70;;;;;;;14.38;68.13;102134.25;5075395;28;20029;-87
2022/05/07 06:21:20;;;;;;;29.90;18.87;;;;;;;14.48;68.76;102133.00;5043460;28;20028;-87
2022/05/07 06:23:51;;;;;;;30.05;18.67;;;;;;;14.62;68.45;102148.34;5058452;28;20037;-87
2022/05/07 06:29:12;;;;;;;29.90;18.63;;;;;;;14.71;68.62;102155.28;5076427;28;20048;-86
2022/05/07 06:31:43;;;;;;;30.88;18.15;;;;;;;14.60;67.42;102139.50;5074797;28;20052;-86
2022/05/07 06:34:14;;;;;;;29.05;17.65;;;;;;;14.55;67.62;102142.84;5058786;28;20032;-87
2022/05/07 06:36:51;;;;;;;37.83;19.70;;;;;;;14.68;67.33;102155.69;5075280;28;20499;-87
2022/05/07 06:39:29;;;;;;;30.00;18.27;;;;;;;14.53;67.87;102138.66;5074333;28;20060;-87
2022/05/07 06:41:59;;;;;;;35.00;18.37;;;;;;;14.55;67.90;102142.03;5074121;28;20020;-87
2022/05/07 06:44:33;;;;;;;30.90;19.75;;;;;;;14.76;68.01;102160.09;5041405;28;20048;-87
2022/05/07 06:47:01;;;;;;;38.85;19.65;;;;;;;14.72;66.96;102151.50;5076051;28;20032;-87
2022/05/07 06:49:42;;;;;;;34.58;19.40;;;;;;;14.79;67.51;102154.22;5074007;28;20040;-88
2022/05/07 06:52:10;;;;;;;34.40;20.33;;;;;;;14.87;67.51;102150.44;5074626;28;20040;-87
2022/05/07 06:54:45;;;;;;;32.77;20.07;;;;;;;14.98;67.64;102154.41;5074270;28;20071;-87
2022/05/07 06:57:13;;;;;;;31.25;19.60;;;;;;;14.94;66.72;102147.69;5074197;28;20139;-88
2022/05/07 06:59:42;;;;;;;29.75;18.27;;;;;;;15.07;66.70;102155.84;5074373;28;20161;-87
2022/05/07 07:02:20;;;;;;;29.63;18.70;;;;;;;15.06;67.05;102144.09;5073610;28;20055;-87
2022/05/07 07:04:48;;;;;;;32.88;19.20;;;;;;;15.21;67.49;102151.22;5075830;28;20067;-87
2022/05/07 07:07:25;;;;;;;33.93;19.67;;;;;;;15.33;66.94;102159.59;5075325;28;20108;-88
2022/05/07 07:09:53;;;;;;;36.45;18.42;;;;;;;15.25;66.54;102158.78;5074383;28;20033;-87
2022/05/07 07:13:08;;;;;;;31.13;19.15;;;;;;;15.27;67.17;102162.13;5073908;28;20036;-88
2022/05/07 07:15:46;;;;;;;;;;;;;;;;;;;;;
2022/05/07 07:18:14;;;;;;;32.88;19.73;;;;;;;15.41;66.89;102159.34;5075236;28;20038;-87
2022/05/07 07:20:50;;;;;;;33.83;17.10;;;;;;;15.35;66.07;102147.34;5073529;28;20075;-87
2022/05/07 07:23:30;;;;;;;30.42;18.45;;;;;;;15.35;65.62;102143.78;5074148;28;20708;-87
2022/05/07 07:25:59;;;;;;;31.55;18.92;;;;;;;15.47;66.15;102149.44;5073668;28;20036;-89
2022/05/07 07:28:30;;;;;;;28.70;18.48;;;;;;;15.57;65.92;102166.22;5073788;28;20412;-88
2022/05/07 07:31:06;;;;;;;34.83;18.77;;;;;;;15.57;65.48;102160.75;5073513;28;20511;-88
2022/05/07 07:33:32;;;;;;;30.07;18.10;;;;;;;15.58;65.16;102148.75;5058489;28;20043;-87
2022/05/07 07:36:04;;;;;;;33.78;17.83;;;;;;;15.56;64.82;102148.13;5073182;28;20037;-87
2022/05/07 07:38:29;;;;;;;28.67;17.80;;;;;;;15.65;64.81;102159.66;5074739;28;20033;-85
2022/05/07 07:40:55;;;;;;;34.43;17.70;;;;;;;15.67;64.66;102141.97;5074264;28;20024;-86
2022/05/07 07:43:22;;;;;;;28.27;18.33;;;;;;;15.73;64.05;102148.47;5074810;28;20021;-87
2022/05/07 07:48:46;;;;;;;27.65;19.00;;;;;;;15.92;64.37;102149.47;5074354;28;20106;-88
2022/05/07 07:51:22;;;;;;;29.67;18.38;;;;;;;16.00;63.54;102151.09;5073525;28;20063;-87
2022/05/07 07:53:49;;;;;;;34.92;18.98;;;;;;;15.95;64.04;102149.84;5057409;28;20106;-88
2022/05/07 07:56:16;;;;;;;36.07;18.33;;;;;;;16.03;63.41;102159.69;5073327;28;20031;-88
2022/05/07 07:58:46;;;;;;;28.02;15.40;;;;;;;16.06;61.59;102142.00;5074587;28;20024;-88
2022/05/07 08:01:17;;;;;;;28.13;15.25;;;;;;;16.20;60.63;102157.28;5074028;28;20025;-87
2022/05/07 08:03:46;;;;;;;29.35;14.85;;;;;;;16.34;60.77;102162.66;5073080;28;20043;-88
2022/05/07 08:06:17;;;;;;;30.85;16.23;;;;;;;16.41;60.15;102152.50;5072832;28;20051;-87
2022/05/07 08:11:50;;;;;;;;;;;;;;;;;;;;;
2022/05/07 08:14:21;;;;;;;26.20;14.48;;;;;;;16.78;59.14;102147.13;5073556;28;20370;-86
2022/05/07 08:17:05;;;;;;;30.33;16.80;;;;;;;16.91;59.17;102152.50;5074672;28;20033;-85
2022/05/07 08:19:42;;;;;;;29.73;15.32;;;;;;;16.92;58.15;102148.72;5073942;28;20025;-87
2022/05/07 08:22:08;;;;;;;26.87;15.13;;;;;;;16.88;57.79;102143.91;5057161;28;20457;-85
2022/05/07 08:24:42;;;;;;;30.75;15.27;;;;;;;16.97;57.94;102159.81;5072293;28;20035;-86
2022/05/07 08:27:10;;;;;;;30.38;15.48;;;;;;;16.93;57.77;102144.91;5072833;28;20032;-86
2022/05/07 08:29:39;;;;;;;28.03;15.60;;;;;;;16.97;57.68;102151.59;5072647;28;20032;-86
2022/05/07 08:32:07;;;;;;;27.17;15.75;;;;;;;17.09;56.95;102159.06;5073725;28;20028;-86
2022/05/07 08:34:35;;;;;;;26.77;14.65;;;;;;;17.23;56.88;102149.66;5055703;28;20099;-86
2022/05/07 08:37:10;;;;;;;26.38;15.75;;;;;;;17.38;56.89;102151.13;5073735;28;20115;-86
2022/05/07 08:39:37;;;;;;;30.17;15.80;;;;;;;17.50;54.58;102155.63;5072512;28;20119;-88
2022/05/07 08:42:09;;;;;;;30.07;16.33;;;;;;;17.59;54.47;102160.81;5071809;28;20036;-84
2022/05/07 08:44:38;;;;;;;28.02;15.20;;;;;;;17.63;54.09;102160.13;5072300;28;20426;-85
2022/05/07 08:47:23;;;;;;;25.13;15.50;;;;;;;17.63;54.58;102154.63;5056226;28;20043;-86
2022/05/07 08:50:10;;;;;;;31.50;16.63;;;;;;;17.70;55.16;102158.13;5072771;28;20082;-85
2022/05/07 08:52:46;;;;;;;27.02;15.38;;;;;;;17.78;54.20;102158.88;5073683;28;20029;-85
2022/05/07 08:55:25;;;;;;;31.83;15.80;;;;;;;17.85;53.91;102148.66;5071831;28;20035;-85
2022/05/07 08:57:52;;;;;;;33.28;17.65;;;;;;;17.92;52.77;102151.31;5072323;28;20037;-85
2022/05/07 09:00:26;;;;;;;29.02;15.63;;;;;;;18.09;53.05;102165.25;5071804;28;20036;-85
2022/05/07 09:03:21;;;;;;;26.58;15.73;;;;;;;18.27;53.12;102150.59;5072183;28;20042;-85
2022/05/07 09:05:45;;;;;;;27.90;16.50;;;;;;;18.64;52.21;102143.00;5072576;28;20044;-86
2022/05/07 09:08:36;;;;;;;28.77;17.07;;;;;;;18.86;51.71;102142.44;5073206;28;20032;-85
2022/05/07 09:11:01;;;;;;;30.38;17.50;;;;;;;18.89;51.06;102140.03;5071303;28;20047;-85
2022/05/07 09:13:58;;;;;;;31.27;17.48;;;;;;;18.97;52.00;102141.59;5072655;28;20056;-86
2022/05/07 09:16:42;;;;;;;30.80;16.77;;;;;;;19.05;50.34;102140.41;5072427;28;20051;-86
2022/05/07 09:19:31;;;;;;;30.00;17.03;;;;;;;19.33;50.36;102141.56;5071667;28;20048;-86
2022/05/07 09:22:07;;;;;;;31.65;16.60;;;;;;;19.46;49.44;102138.53;5073123;28;20472;-86
2022/05/07 09:24:57;;;;;;;29.15;15.82;;;;;;;19.68;49.64;102140.59;5071878;28;20119;-86
2022/05/07 09:27:22;;;;;;;26.02;15.77;;;;;;;20.01;48.08;102139.06;5071789;28;20146;-86
2022/05/07 09:30:23;;;;;;;27.57;15.20;;;;;;;20.41;48.17;102127.88;5071631;28;20036;-85
2022/05/07 09:32:57;;;;;;;33.25;16.33;;;;;;;20.68;46.06;102132.75;5072105;28;20112;-86
2022/05/07 09:35:48;;;;;;;33.30;17.98;;;;;;;20.66;46.50;102130.22;5056087;28;20040;-85
2022/05/07 09:38:37;;;;;;;35.38;20.35;;;;;;;20.70;46.07;102149.88;5072067;28;20029;-85
2022/05/07 09:41:05;;;;;;;31.70;18.30;;;;;;;20.68;46.06;102135.50;5071211;28;20146;-85
2022/05/07 09:43:35;;;;;;;35.47;19.33;;;;;;;20.83;45.91;102148.69;5071797;28;20060;-85
2022/05/07 09:46:06;;;;;;;33.60;19.80;;;;;;;20.74;46.32;102145.50;5072227;28;20070;-85
2022/05/07 09:48:38;;;;;;;36.95;19.30;;;;;;;20.76;45.34;102148.88;5071772;28;20033;-85
2022/05/07 09:51:04;;;;;;;33.67;18.70;;;;;;;20.83;45.71;102143.16;5072746;28;20024;-85
2022/05/07 09:59:11;;;;;;;31.55;18.58;;;;;;;21.26;44.49;102140.72;5072001;28;20113;-85
2022/05/07 10:02:09;;;;;;;29.00;17.77;;;;;;;21.60;44.74;102154.41;5071388;28;20029;-85
2022/05/07 10:05:36;;;;;;;30.90;18.30;;;;;;;21.78;44.40;102142.22;5071856;28;20044;-86
2022/05/07 10:08:09;;;;;;;29.30;17.90;;;;;;;22.19;41.80;102148.97;4970895;28;20043;-86
2022/05/07 10:10:37;;;;;;;31.83;17.90;;;;;;;22.28;40.96;102141.03;4974359;28;20038;-85
2022/05/07 10:13:05;;;;;;;26.45;16.50;;;;;;;22.14;41.08;102145.31;5023492;28;20093;-85
2022/05/07 10:15:42;;;;;;;33.95;16.92;;;;;;;22.00;40.19;102128.34;5058532;28;20032;-85
2022/05/07 10:18:14;;;;;;;25.73;15.03;;;;;;;22.00;39.28;102133.88;5075752;28;20029;-85
2022/05/07 10:20:56;;;;;;;27.75;14.25;;;;;;;22.13;38.77;102124.28;5075390;28;20028;-85
2022/05/07 10:23:33;;;;;;;23.15;14.05;;;;;;;22.66;39.34;102121.69;5075108;28;20066;-85
2022/05/07 10:26:07;;;;;;;27.48;14.82;;;;;;;22.81;39.02;102132.88;5058446;28;20040;-86
2022/05/07 10:28:46;;;;;;;23.25;14.30;;;;;;;22.87;39.56;102137.34;5058068;28;20037;-85
2022/05/07 10:31:29;;;;;;;24.70;14.50;;;;;;;23.14;38.77;102133.63;5075141;28;20116;-85
2022/05/07 10:33:55;;;;;;;27.75;15.18;;;;;;;23.07;37.56;102116.41;5058159;28;20028;-85
2022/05/07 10:36:21;;;;;;;21.02;14.38;;;;;;;23.19;37.36;102111.50;5075917;28;20032;-85
2022/05/07 10:38:50;;;;;;;21.77;12.77;;;;;;;23.47;37.59;102113.00;5074472;28;20048;-85
2022/05/07 10:41:18;;;;;;;21.83;10.50;;;;;;;23.96;36.45;102133.09;5073854;28;20044;-85
2022/05/07 10:43:59;;;;;;;19.43;10.43;;;;;;;24.20;36.56;102118.69;5074953;28;20055;-85
2022/05/07 10:46:25;;;;;;;17.98;9.27;;;;;;;24.74;34.19;102109.78;5074818;28;20020;-85
2022/05/07 10:49:04;;;;;;;17.30;8.55;;;;;;;25.41;32.71;102131.81;5057749;28;20028;-85
2022/05/07 10:51:50;;;;;;;17.50;8.18;;;;;;;25.70;31.75;102118.03;5074384;28;20063;-87
2022/05/07 10:54:40;;;;;;;;;;;;;;;;;;;;;
2022/05/07 10:57:06;;;;;;;19.58;9.48;;;;;;;26.82;30.25;102111.00;5076060;28;20040;-87
2022/05/07 10:59:40;;;;;;;16.63;10.20;;;;;;;26.62;30.79;102096.16;5074082;28;20448;-87
2022/05/07 11:02:19;;;;;;;17.67;9.33;;;;;;;26.24;32.22;102101.53;5058032;28;20031;-87
2022/05/07 11:04:50;;;;;;;14.70;9.32;;;;;;;26.24;32.87;102109.88;5074518;28;20468;-87
2022/05/07 11:07:22;;;;;;;16.10;10.35;;;;;;;26.40;32.39;102105.81;5074507;28;20028;-87
2022/05/07 11:10:17;;;;;;;23.00;10.70;;;;;;;26.83;32.20;102094.00;5073859;28;20496;-87
2022/05/07 11:12:45;;;;;;;16.60;9.98;;;;;;;27.88;29.52;102114.66;5073811;28;20044;-87
2022/05/07 11:15:24;;;;;;;16.93;10.00;;;;;;;27.71;30.50;102109.59;5074214;28;20453;-87
2022/05/07 11:17:50;;;;;;;16.38;9.50;;;;;;;27.00;30.64;102103.81;5074011;28;20472;-87
2022/05/07 11:20:27;;;;;;;14.13;9.45;;;;;;;26.59;30.93;102096.75;5073105;28;20130;-88
2022/05/07 11:23:09;;;;;;;15.65;9.65;;;;;;;26.26;32.40;102097.34;5074168;28;20035;-87
2022/05/07 11:25:48;;;;;;;;;;;;;;;;;;;;;
2022/05/07 11:28:14;;;;;;;17.33;9.63;;;;;;;25.72;33.32;102106.63;5075172;28;20029;-86
2022/05/07 11:30:59;;;;;;;21.90;10.02;;;;;;;25.92;34.03;102105.63;5073488;28;20116;-87
2022/05/07 11:33:29;;;;;;;17.67;10.32;;;;;;;26.73;31.99;102108.03;5057611;28;20048;-86
2022/05/07 11:36:15;;;;;;;16.70;9.80;;;;;;;29.62;28.96;102090.13;5073949;28;20029;-87
2022/05/07 11:38:51;;;;;;;;;;;;;;;;;;;;;
2022/05/07 11:41:19;;;;;;;16.60;9.57;;;;;;;34.42;20.27;102088.78;5074467;28;20383;-86
2022/05/07 11:46:52;;;;;;;17.85;9.20;;;;;;;33.97;23.19;102094.38;5074205;28;20177;-87
2022/05/07 11:49:33;;;;;;;15.68;8.93;;;;;;;34.50;22.91;102092.66;5074371;28;20024;-87
2022/05/07 11:52:13;;;;;;;15.05;9.10;;;;;;;33.00;23.65;102095.06;5074450;28;20025;-87
2022/05/07 11:54:53;;;;;;;15.90;9.30;;;;;;;32.27;24.74;102086.75;5074433;28;20134;-87
2022/05/07 11:57:44;;;;;;;16.63;10.30;;;;;;;32.08;24.93;102089.91;5056492;28;20469;-87
2022/05/07 12:00:17;;;;;;;20.38;9.70;;;;;;;32.06;24.59;102092.25;5074478;28;20112;-86
2022/05/07 12:02:50;;;;;;;15.30;9.45;;;;;;;31.20;25.84;102072.25;5074233;28;20465;-87
2022/05/07 12:05:19;;;;;;;18.23;9.52;;;;;;;30.55;26.10;102078.28;5073150;28;20024;-86
2022/05/07 12:07:52;;;;;;;16.57;10.33;;;;;;;30.40;26.81;102071.09;5073053;28;20031;-87
2022/05/07 12:10:22;;;;;;;16.20;9.70;;;;;;;32.38;24.88;102074.03;5072545;28;20347;-87
2022/05/07 12:12:51;;;;;;;16.17;10.32;;;;;;;34.13;22.14;102067.19;5072504;28;20044;-86
2022/05/07 12:17:52;;;;;;;14.55;9.40;;;;;;;36.33;20.06;102068.38;5074257;28;20033;-87
2022/05/07 12:18:10;;;;;;;13.45;9.80;;;;;;;36.29;19.98;102081.56;5072862;28;20033;-86
2022/05/07 12:20:43;;;;;;;14.00;8.80;;;;;;;36.81;19.28;102074.03;5074001;28;20028;-87
2022/05/07 12:31:22;;;;;;;15.00;10.50;;;;;;;29.66;28.82;102077.16;5074206;28;20109;-87
2022/05/07 12:33:51;;;;;;;22.97;10.57;;;;;;;28.73;29.79;102079.16;5056338;28;20033;-87
2022/05/07 12:36:18;;;;;;;14.77;9.63;;;;;;;27.87;31.50;102073.94;5072232;28;20028;-87